Terminal Aerodrome Forecast
Issued by NWS

Home | Current Version | Previous Version | Text Only | Print | Product List | Glossary On
Versions: 1 2 3 4 5 6 7 8 9 10 11 12 13 14
810
FTUS45 KFGZ 240131 AAA
TAFGCN
TAF AMD
KGCN 240131Z 2402/2424 25011KT P6SM FEW250
     FM240230 VRB05KT P6SM FEW250
     FM241800 24010KT P6SM FEW250=

USA.gov is the U.S. government's official web portal to all federal, state and local government web resources and services.